EGBJ/GLO METAR and TAF weather

Enter ICAO airport designator
Station Type Date Time Source
EGBJ METAR 2018/04/26 14:50 UTC NOAA

EGBJ 261450Z 23009KT 190V270 9999 -SHRA SCT035 13/05 Q1015


Station Type Date Time Source
EGBJ Decoded METAR 2018/04/26 14:50 UTC NOAA

Staverton Private , United Kingdom (EGBJ) 51-54N 002-10W
Apr 26, 2018 - 10:50 AM EDT / 2018.04.26 1450 UTC
Wind: from the SW (230 degrees) at 10 MPH (9 KT) (direction variable):0
Visibility: greater than 7 mile(s):0
Sky conditions: partly cloudy
Weather: light rain showers
Temperature: 55 F (13 C)
Dew Point: 41 F (5 C)
Relative Humidity: 58%
Pressure (altimeter): 29.97 in. Hg (1015 hPa)
ob: EGBJ 261450Z 23009KT 190V270 9999 -SHRA SCT035 13/05 Q1015
cycle: 15

Station Type Date Time Source
EGBJ TAF UTC NOAA

Error!


Example: see airport list